aviador You're here:

UKOO Decoded Metar

ODESSA in UKRAINE
Report Time2017-12-11 03:30:00
UTC Time2017-12-11 04:05:05
Flight Rules vfr VFR
Wind210° at 14 kt
W.Decomp.*RWY 16: 9.7 kt HW 10.1 kt RCW
W.Rank210° ranks 19
Current wind is above 210° avg. (8.5)
Visibility9999 m
Phenomena:N/A
Clouds:N/A
Expected CloudBase > 1,600 ft AGL from Temp-Dew spread
CeilingNone
Temp03°C (ISA -12)
Dew Point-1°C (75% RH)
AAT-4.2°C
QNH1014 hPa
Density Alt-1,270 ft
Elevation115 ft
Report Wrong Elevation
Raw Report
UKOO 110330Z 21007MPS CAVOK 03/M01 Q1014 R16/090060 NOSIG=

Extra information for UKOO:More info

Metar Taf Metar & Taf Last 4 Metars F.Rules Stats Wind Profile Meteogram Temp Stats Airport Information Weather charts Add Link Nearby VenuesMetar ALERT Operation Metar Decoded Social comments